• Join FlightAware (Why Join?)
  • Login
  • US Flag 
09:03PM EST


 

Airport Tracker/Info


-or-


 

Live Flight TrackerFlight Track Log ✈ KAL86 ✈ 21-Mar-2014 ✈ KJFK - RKSI / ICN

Flight Track Log - Related Links

Times and Time Zones

All times are in EDT time to prevent confusion due to time zone crossing. See the KAL86 flight status page for this flight to view local times or setup timezone preferences in your user account.

Time Position Orientation Groundspeed Altitude Reporting Facility
EDT Latitude Longitude Course Direction KTS MPH feet Rate Location/Type
01:13AM 40.5911 -73.8078 23° Northeast 191 220 2,300  Level Boston Center
01:14AM 40.5403 -73.8347 202° Southwest 203 234 3,900 1,736 Climbing Boston Center
01:15AM 40.4908 -73.7683 134° Southeast 260 299 5,800 2,132 Climbing Boston Center
01:16AM 41.1109 -73.5039 27° Northeast  Level FlightAware Approximate
01:16AM 40.5442 -73.6947 46° Northeast 281 323 8,200  Level Boston Center
01:17AM 41.2323 -73.4422 21° North  Level FlightAware Approximate
01:17AM 40.6228 -73.6647 16° North 287 330 10,400  Level Boston Center
01:18AM 41.3514 -73.3707 23° Northeast  Level FlightAware Approximate
01:18AM 40.7128 -73.6281 17° North 330 380 11,500  Level Boston Center
01:19AM 40.8114 -73.5881 17° North 366 421 14,000 2,430 Climbing Boston Center
01:20AM 40.9158 -73.5447 17° North 389 448 16,400 2,182 Climbing Boston Center
01:21AM 41.0278 -73.4989 17° North 396 456 18,400 1,900 Climbing Boston Center
01:22AM 41.1353 -73.4608 15° North 410 472 20,200 1,850 Climbing Boston Center
01:23AM 41.2514 -73.4444 North 416 479 22,100 1,700 Climbing Boston Center
01:24AM 41.3722 -73.4314 North 429 494 23,600 1,400 Climbing Boston Center
01:25AM 41.4956 -73.4133 North 440 506 24,900 1,240 Climbing Boston Center
01:26AM 41.6292 -73.3958 North 456 525 26,100 1,289 Climbing Boston Center
01:27AM 41.7614 -73.3778 North 472 543 27,500 1,400 Climbing Boston Center
01:28AM 41.8939 -73.3653 North 477 549 28,900 1,350 Climbing Boston Center
01:29AM 42.0258 -73.3711 358° North 476 548 30,200 900 Climbing Boston Center
01:30AM 42.1536 -73.3800 357° North 478 550 30,700 193 Climbing Boston Center
01:33AM 42.5977 -73.4126 357° North 491 565 31,000 50 Climbing FlightAware ADS-B (CYOW)
01:36AM 42.9753 -73.4392 357° North 491 565 31,000  Level FlightAware ADS-B (CYOW)
01:38AM 43.2283 -73.4569 357° North 492 566 31,000  Level FlightAware ADS-B (CYOW)
01:39AM 43.4166 -73.4702 357° North 491 565 31,000  Level FlightAware ADS-B (CYOW)
01:41AM 43.6236 -73.4851 357° North 493 567 31,000  Level FlightAware ADS-B (CYOW)
01:42AM 43.8320 -73.5000 357° North 492 566 31,000  Level FlightAware ADS-B
01:43AM 43.9760 -73.5110 357° North 488 562 31,000  Level FlightAware ADS-B
01:44AM 44.0151 -73.5134 357° North 487 560 31,000  Level FlightAware ADS-B (CYOW)
01:44AM 44.0600 -73.5170 357° North 486 559 31,000  Level FlightAware ADS-B
01:45AM 44.1360 -73.5220 357° North 485 558 31,000  Level FlightAware ADS-B
01:45AM 44.2210 -73.5280 357° North 482 555 31,000  Level FlightAware ADS-B
01:46AM 44.3010 -73.5340 357° North 480 552 31,000  Level FlightAware ADS-B
01:46AM 44.3670 -73.5390 357° North 481 554 31,000  Level FlightAware ADS-B
01:47AM 44.4470 -73.5450 357° North 479 551 31,000  Level FlightAware ADS-B
01:47AM 44.4704 -73.5469 357° North 480 552 31,000  Level FlightAware ADS-B (CYOW)
01:48AM 44.5270 -73.5510 357° North 482 555 31,000  Level FlightAware ADS-B
01:48AM 44.5880 -73.5555 357° North 482 555 31,000  Level FlightAware ADS-B (CYOW)
01:48AM 44.5900 -73.5560 357° North 482 555 31,000  Level FlightAware ADS-B
01:49AM 44.7060 -73.5640 357° North 481 554 31,000  Level FlightAware ADS-B
01:49AM 44.7497 -73.5676 357° North 481 554 31,000  Level FlightAware ADS-B (CYOW)
01:49AM 44.7930 -73.5710 357° North 481 554 31,000  Level FlightAware ADS-B
01:50AM 44.8045 -73.5716 357° North 480 552 31,000  Level FlightAware ADS-B (KBTV)
01:50AM 44.8600 -73.5760 357° North 479 551 31,000  Level FlightAware ADS-B
01:50AM 44.9197 -73.5803 357° North 479 551 31,000  Level FlightAware ADS-B (CYOW)
01:51AM 44.9260 -73.5810 357° North 478 550 31,000  Level FlightAware ADS-B
01:51AM 44.9807 -73.5848 357° North 477 549 31,000  Level FlightAware ADS-B (CYOW)
01:51AM 45.0040 -73.5870 357° North 477 549 31,000  Level FlightAware ADS-B
01:52AM 45.0710 -73.5920 357° North 477 549 31,000  Level FlightAware ADS-B
01:52AM 45.0856 -73.5927 357° North 477 549 31,000  Level FlightAware ADS-B (CYOW)
01:52AM 45.1510 -73.5980 357° North 478 550 31,000  Level FlightAware ADS-B
01:52AM 45.1610 -73.5985 357° North 478 550 31,000  Level FlightAware ADS-B (CYOW)
01:53AM 45.2290 -73.6040 357° North 479 551 31,000  Level FlightAware ADS-B
01:53AM 45.3100 -73.6100 357° North 478 550 31,000  Level FlightAware ADS-B
01:54AM 45.3403 -73.6121 357° North 478 550 31,000  Level FlightAware ADS-B (CYOW)
01:54AM 45.3880 -73.6160 357° North 478 550 31,000  Level FlightAware ADS-B
01:54AM 45.4261 -73.6186 357° North 478 550 31,000  Level FlightAware ADS-B (CYOW)
01:55AM 45.4550 -73.6210 357° North 478 550 31,000  Level FlightAware ADS-B
01:55AM 45.5200 -73.6260 357° North 478 550 31,000  Level FlightAware ADS-B
01:56AM 45.5908 -73.6313 357° North 478 550 31,000  Level FlightAware ADS-B (CYOW)
01:56AM 45.6010 -73.6320 357° North 478 550 31,000  Level FlightAware ADS-B
01:56AM 45.6800 -73.6380 357° North 479 551 31,000  Level FlightAware ADS-B
01:57AM 45.7460 -73.6430 357° North 479 551 31,000  Level FlightAware ADS-B
01:57AM 45.8250 -73.6490 357° North 477 549 31,000  Level FlightAware ADS-B
01:58AM 45.8920 -73.6540 357° North 475 547 31,000  Level FlightAware ADS-B
01:58AM 45.9700 -73.6610 357° North 474 545 31,000  Level FlightAware ADS-B
01:59AM 46.0360 -73.6660 357° North 473 544 31,000  Level FlightAware ADS-B
02:00AM 46.1150 -73.6720 357° North 473 544 31,000  Level FlightAware ADS-B
02:00AM 46.1810 -73.6770 357° North 473 544 31,000  Level FlightAware ADS-B
02:01AM 46.2720 -73.6840 357° North 472 543 31,000  Level FlightAware ADS-B
02:01AM 46.3280 -73.6890 357° North 472 543 31,000  Level FlightAware ADS-B
02:02AM 46.4010 -73.6950 357° North 472 543 31,000  Level FlightAware ADS-B
02:02AM 46.4890 -73.7020 357° North 472 543 31,000  Level FlightAware ADS-B
02:03AM 46.5620 -73.7070 357° North 470 541 31,000  Level FlightAware ADS-B
02:06AM 46.9630 -73.7390 357° North 473 544 31,000  Level FlightAware ADS-B
02:06AM 47.0290 -73.7450 357° North 473 544 31,000  Level FlightAware ADS-B
02:07AM 47.0930 -73.7500 357° North 475 547 31,000  Level FlightAware ADS-B
02:08AM 47.1860 -73.7570 357° North 474 545 31,000  Level FlightAware ADS-B
02:08AM 47.2510 -73.7630 357° North 474 545 31,000  Level FlightAware ADS-B
02:10AM 47.4240 -73.7770 357° North 474 545 31,000  Level FlightAware ADS-B
02:10AM 47.4970 -73.7830 357° North 475 547 31,000  Level FlightAware ADS-B
02:11AM 47.6667 -73.8000 357° North 470 541 31,000  Level Montreal Center
02:12AM 47.7833 -73.8000 360° North 470 541 31,000  Level Montreal Center
02:13AM 47.9167 -73.8167 355° North 470 541 31,000  Level Montreal Center
02:14AM 48.0500 -73.8333 355° North 470 541 31,000  Level Montreal Center
02:15AM 48.1833 -73.8167 North 470 541 31,000  Level Montreal Center
02:16AM 48.3000 -73.8500 349° North 470 541 31,000  Level Montreal Center
02:17AM 48.4500 -73.8667 356° North 470 541 31,000  Level Montreal Center
02:18AM 48.5833 -73.8500 North 470 541 31,000  Level Montreal Center
02:19AM 48.7167 -73.8833 351° North 470 541 31,000  Level Montreal Center
02:20AM 48.8500 -73.9000 355° North 470 541 31,000  Level Montreal Center
02:21AM 48.9667 -73.9000 360° North 470 541 31,000  Level Montreal Center
02:22AM 49.1167 -73.9167 356° North 470 541 31,000  Level Montreal Center
02:23AM 49.2333 -73.9333 355° North 480 552 31,000  Level Montreal Center
02:24AM 49.3667 -73.9333 360° North 480 552 31,000  Level Montreal Center
02:25AM 49.5000 -73.9500 355° North 480 552 31,000  Level Montreal Center
02:26AM 49.6333 -73.9667 355° North 480 552 31,000  Level Montreal Center
02:27AM 49.7667 -73.9667 360° North 480 552 31,000  Level Montreal Center
02:28AM 49.9000 -73.9833 355° North 480 552 31,000  Level Montreal Center
02:29AM 50.0167 -74.0000 355° North 470 541 31,000  Level Montreal Center
02:30AM 50.1667 -74.0500 348° North 480 552 31,000  Level Montreal Center
02:31AM 50.3000 -74.1000 347° North 480 552 31,000  Level Montreal Center
02:32AM 50.4333 -74.1500 347° North 480 552 31,000  Level Montreal Center
02:33AM 50.5500 -74.1833 350° North 480 552 31,000  Level Montreal Center
02:34AM 50.6833 -74.2333 347° North 480 552 31,000  Level Montreal Center
02:35AM 50.8167 -74.2833 347° North 480 552 31,000  Level Montreal Center
02:36AM 50.9333 -74.3333 345° North 470 541 31,000  Level Montreal Center
02:37AM 51.0667 -74.3833 347° North 480 552 31,000  Level Montreal Center
02:38AM 51.2167 -74.4333 348° North 480 552 31,000  Level Montreal Center
02:39AM 51.3500 -74.4833 347° North 480 552 31,000  Level Montreal Center
02:40AM 51.4667 -74.5333 345° North 480 552 31,000  Level Montreal Center
02:41AM 51.6000 -74.5833 347° North 480 552 31,000  Level Montreal Center
02:42AM 51.7333 -74.6333 347° North 480 552 31,000  Level Montreal Center
02:43AM 51.8667 -74.6833 347° North 480 552 31,000  Level Montreal Center
02:44AM 51.9833 -74.7333 345° North 480 552 31,000  Level Montreal Center
02:45AM 52.1167 -74.7833 347° North 480 552 31,000  Level Montreal Center
02:46AM 52.2500 -74.8333 347° North 480 552 31,000  Level Montreal Center
02:47AM 52.3833 -74.8833 347° North 480 552 31,000  Level Montreal Center
02:48AM 52.5167 -74.9333 347° North 480 552 31,000  Level Montreal Center
02:49AM 52.6500 -75.0000 343° North 490 564 31,000  Level Montreal Center
02:50AM 52.7833 -75.0500 347° North 480 552 31,000  Level Montreal Center
02:51AM 52.9167 -75.1000 347° North 480 552 31,000  Level Montreal Center
02:52AM 53.0333 -75.1500 346° North 480 552 31,000  Level Montreal Center
02:53AM 53.1833 -75.2000 349° North 480 552 31,000  Level Montreal Center
02:54AM 53.3000 -75.2667 341° North 480 552 31,000  Level Montreal Center
02:55AM 53.4333 -75.3167 347° North 490 564 31,000  Level Montreal Center
02:56AM 53.5667 -75.3667 347° North 490 564 31,000  Level Montreal Center
02:57AM 53.7167 -75.4167 349° North 480 552 31,000  Level Montreal Center
02:58AM 53.8500 -75.4833 344° North 490 564 31,000  Level Montreal Center
03:00AM 54.1000 -75.5833 346° North 490 564 31,000  Level Montreal Center
03:01AM 54.2333 -75.6500 344° North 490 564 31,000  Level Montreal Center
03:02AM 54.3667 -75.7000 348° North 490 564 31,000  Level Montreal Center
03:03AM 54.5000 -75.7833 340° North 490 564 31,000  Level Montreal Center
03:04AM 54.6333 -75.8500 344° North 490 564 31,000  Level Montreal Center
03:05AM 54.7667 -75.9000 348° North 490 564 31,000  Level Montreal Center
03:06AM 54.9000 -75.9667 344° North 490 564 31,000  Level Montreal Center
03:07AM 55.0167 -76.0000 351° North 490 564 31,000  Level Montreal Center
03:08AM 55.1667 -76.0500 349° North 490 564 31,000  Level Montreal Center
03:09AM 55.3167 -76.1167 346° North 490 564 31,000  Level Montreal Center
03:10AM 55.4500 -76.1333 356° North 490 564 31,000  Level Montreal Center
03:11AM 55.5833 -76.2000 344° North 490 564 31,000  Level Montreal Center
03:12AM 55.7000 -76.2667 342° North 490 564 31,000  Level Montreal Center
03:13AM 55.8333 -76.2833 356° North 480 552 31,000  Level Montreal Center
03:14AM 55.9667 -76.3500 344° North 490 564 31,000  Level Montreal Center
03:16AM 56.2333 -76.4500 348° North 490 564 31,000  Level Montreal Center
03:17AM 56.3667 -76.4833 352° North 490 564 31,000  Level Montreal Center
03:18AM 56.5167 -76.5333 348° North 490 564 31,000  Level Montreal Center
03:19AM 56.5011 -76.5341 348° North  Level FlightAware Approximate
03:19AM 56.6500 -76.6000 345° North 490 564 31,000  Level Montreal Center
03:20AM 56.7833 -76.6333 352° North 490 564 31,000  Level Montreal Center
03:21AM 56.9167 -76.7000 345° North 490 564 31,000  Level Montreal Center
03:22AM 57.0500 -76.7667 345° North 500 575 31,000 19 Level Montreal Center
03:25AM 57.2770 -76.8543 348° North  Level FlightAware Approximate
03:32AM 58.1932 -77.2197 348° North  Level FlightAware Approximate
03:33AM 58.3241 -77.2734 348° North  Level FlightAware Approximate
03:34AM 58.4548 -77.3276 348° North  Level FlightAware Approximate
03:35AM 58.5856 -77.3821 348° North  Level FlightAware Approximate
03:36AM 58.7163 -77.4370 348° North  Level FlightAware Approximate
03:37AM 58.8470 -77.4924 348° North  Level FlightAware Approximate
03:38AM 58.9777 -77.5482 348° North  Level FlightAware Approximate
03:39AM 59.1084 -77.6044 348° North  Level FlightAware Approximate
03:40AM 59.2390 -77.6610 347° North  Level FlightAware Approximate
03:41AM 59.3696 -77.7181 347° North  Level FlightAware Approximate
03:42AM 59.5002 -77.7756 347° North  Level FlightAware Approximate
03:43AM 59.6307 -77.8335 347° North  Level FlightAware Approximate
03:44AM 59.7613 -77.8920 347° North  Level FlightAware Approximate
03:45AM 59.8918 -77.9508 347° North  Level FlightAware Approximate
03:46AM 60.0217 -78.0146 341° North  Level FlightAware Approximate
03:47AM 60.1485 -78.1002 341° North  Level FlightAware Approximate
03:48AM 60.2753 -78.1865 341° North  Level FlightAware Approximate
03:49AM 60.4020 -78.2735 341° North  Level FlightAware Approximate
03:50AM 60.5286 -78.3612 341° North  Level FlightAware Approximate
03:51AM 60.6553 -78.4495 341° North  Level FlightAware Approximate
03:52AM 60.7818 -78.5386 341° North  Level FlightAware Approximate
03:53AM 60.9083 -78.6283 341° North  Level FlightAware Approximate
03:54AM 61.0347 -78.7188 341° North  Level FlightAware Approximate
03:55AM 61.1610 -78.8099 341° North  Level FlightAware Approximate
03:56AM 61.2873 -78.9019 341° North  Level FlightAware Approximate
03:57AM 61.4136 -78.9945 341° North  Level FlightAware Approximate
03:58AM 61.5397 -79.0879 341° North  Level FlightAware Approximate
03:59AM 61.6658 -79.1821 340° North  Level FlightAware Approximate
04:00AM 61.7919 -79.2770 340° North  Level FlightAware Approximate
04:01AM 61.9178 -79.3728 340° North  Level FlightAware Approximate
04:02AM 62.0437 -79.4693 340° North  Level FlightAware Approximate
04:03AM 62.1696 -79.5666 340° North  Level FlightAware Approximate
04:04AM 62.2953 -79.6648 340° North  Level FlightAware Approximate
04:05AM 62.4210 -79.7637 340° North  Level FlightAware Approximate
04:06AM 62.5467 -79.8635 340° North  Level FlightAware Approximate
04:07AM 62.6722 -79.9641 340° North  Level FlightAware Approximate
04:08AM 62.7972 -80.0681 340° North  Level FlightAware Approximate
04:09AM 62.9228 -80.1698 340° North  Level FlightAware Approximate
04:10AM 63.0482 -80.2723 340° North  Level FlightAware Approximate
04:11AM 63.1736 -80.3758 340° North  Level FlightAware Approximate
04:12AM 63.2989 -80.4801 339° North  Level FlightAware Approximate
04:13AM 63.4213 -80.5829 339° North  Level FlightAware Approximate
04:14AM 63.5436 -80.6867 339° North  Level FlightAware Approximate
04:15AM 63.6658 -80.7913 339° North  Level FlightAware Approximate
04:16AM 63.7879 -80.8968 339° North  Level FlightAware Approximate
04:17AM 63.9100 -81.0033 339° North  Level FlightAware Approximate
04:18AM 64.0320 -81.1107 339° North  Level FlightAware Approximate
04:19AM 64.1539 -81.2190 339° North  Level FlightAware Approximate
04:20AM 64.2757 -81.3282 339° North  Level FlightAware Approximate
04:21AM 64.3975 -81.4385 339° North  Level FlightAware Approximate
04:22AM 64.5191 -81.5497 339° North  Level FlightAware Approximate
04:23AM 64.6407 -81.6619 338° Northwest  Level FlightAware Approximate
04:24AM 64.7622 -81.7752 338° Northwest  Level FlightAware Approximate
04:25AM 64.8836 -81.8894 338° Northwest  Level FlightAware Approximate
04:26AM 65.0049 -82.0047 338° Northwest  Level FlightAware Approximate
04:27AM 65.1262 -82.1211 338° Northwest  Level FlightAware Approximate
04:28AM 65.2473 -82.2386 338° Northwest  Level FlightAware Approximate
04:29AM 65.3683 -82.3572 338° Northwest  Level FlightAware Approximate
04:30AM 65.4892 -82.4768 338° Northwest  Level FlightAware Approximate
04:31AM 65.6101 -82.5976 338° Northwest  Level FlightAware Approximate
04:32AM 65.7308 -82.7195 337° Northwest  Level FlightAware Approximate
04:33AM 65.8515 -82.8425 337° Northwest  Level FlightAware Approximate
04:34AM 65.9720 -82.9667 337° Northwest  Level FlightAware Approximate
04:35AM 66.0925 -83.0921 337° Northwest  Level FlightAware Approximate
04:36AM 66.2128 -83.2187 337° Northwest  Level FlightAware Approximate
04:37AM 66.3331 -83.3465 337° Northwest  Level FlightAware Approximate
04:38AM 66.4532 -83.4755 337° Northwest  Level FlightAware Approximate
04:39AM 66.5732 -83.6057 337° Northwest  Level FlightAware Approximate
04:40AM 66.6932 -83.7373 337° Northwest  Level FlightAware Approximate
04:41AM 66.8130 -83.8701 336° Northwest  Level FlightAware Approximate
04:42AM 66.9326 -84.0042 336° Northwest  Level FlightAware Approximate
04:43AM 67.0522 -84.1396 336° Northwest  Level FlightAware Approximate
04:44AM 67.1717 -84.2764 336° Northwest  Level FlightAware Approximate
04:45AM 67.2911 -84.4145 336° Northwest  Level FlightAware Approximate
04:46AM 67.4103 -84.5540 336° Northwest  Level FlightAware Approximate
04:47AM 67.5294 -84.6947 336° Northwest  Level FlightAware Approximate
04:48AM 67.6484 -84.8369 336° Northwest  Level FlightAware Approximate
04:49AM 67.7673 -84.9805 335° Northwest  Level FlightAware Approximate
04:50AM 67.8862 -85.1251 335° Northwest  Level FlightAware Approximate
04:51AM 68.0049 -85.2710 335° Northwest  Level FlightAware Approximate
04:52AM 68.1235 -85.4185 335° Northwest  Level FlightAware Approximate
04:53AM 68.2420 -85.5675 335° Northwest  Level FlightAware Approximate
04:54AM 68.3603 -85.7180 335° Northwest  Level FlightAware Approximate
04:55AM 68.4785 -85.8701 335° Northwest  Level FlightAware Approximate
04:56AM 68.5966 -86.0238 335° Northwest  Level FlightAware Approximate
04:57AM 68.7145 -86.1791 334° Northwest  Level FlightAware Approximate
04:58AM 68.8323 -86.3361 334° Northwest  Level FlightAware Approximate
04:59AM 68.9499 -86.4948 334° Northwest  Level FlightAware Approximate
05:00AM 69.0674 -86.6551 334° Northwest  Level FlightAware Approximate
05:01AM 69.1848 -86.8172 334° Northwest  Level FlightAware Approximate
05:02AM 69.3019 -86.9810 334° Northwest  Level FlightAware Approximate
05:03AM 69.4190 -87.1466 334° Northwest  Level FlightAware Approximate
05:04AM 69.5358 -87.3140 333° Northwest  Level FlightAware Approximate
05:05AM 69.6525 -87.4833 333° Northwest  Level FlightAware Approximate
05:06AM 69.7690 -87.6544 333° Northwest  Level FlightAware Approximate
05:07AM 69.8854 -87.8275 333° Northwest  Level FlightAware Approximate
05:08AM 70.0016 -88.0027 330° Northwest  Level FlightAware Approximate
05:09AM 70.1144 -88.1964 330° Northwest  Level FlightAware Approximate
05:10AM 70.2271 -88.3922 330° Northwest  Level FlightAware Approximate
05:11AM 70.3395 -88.5902 329° Northwest  Level FlightAware Approximate
05:12AM 70.4517 -88.7904 329° Northwest  Level FlightAware Approximate
05:13AM 70.5637 -88.9927 329° Northwest  Level FlightAware Approximate
05:14AM 70.6755 -89.1974 329° Northwest  Level FlightAware Approximate
05:15AM 70.7870 -89.4043 329° Northwest  Level FlightAware Approximate
05:16AM 70.8983 -89.6135 328° Northwest  Level FlightAware Approximate
05:17AM 71.0093 -89.8251 328° Northwest  Level FlightAware Approximate
05:18AM 71.1201 -90.0394 328° Northwest  Level FlightAware Approximate
05:19AM 71.2304 -90.2571 328° Northwest  Level FlightAware Approximate
05:20AM 71.3405 -90.4773 327° Northwest  Level FlightAware Approximate
05:21AM 71.4502 -90.7000 327° Northwest  Level FlightAware Approximate
05:22AM 71.5598 -90.9253 327° Northwest  Level FlightAware Approximate
05:23AM 71.6690 -91.1532 327° Northwest  Level FlightAware Approximate
05:24AM 71.7780 -91.3837 327° Northwest  Level FlightAware Approximate
05:25AM 71.8867 -91.6168 326° Northwest  Level FlightAware Approximate
05:26AM 71.9951 -91.8527 326° Northwest  Level FlightAware Approximate
05:27AM 72.1059 -92.0779 329° Northwest  Level FlightAware Approximate
05:28AM 72.2158 -92.3093 326° Northwest  Level FlightAware Approximate
05:29AM 72.3237 -92.5520 326° Northwest  Level FlightAware Approximate
05:30AM 72.4313 -92.7975 325° Northwest  Level FlightAware Approximate
05:31AM 72.5386 -93.0460 325° Northwest  Level FlightAware Approximate
05:32AM 72.6455 -93.2974 325° Northwest  Level FlightAware Approximate
05:33AM 72.7522 -93.5518 325° Northwest  Level FlightAware Approximate
05:34AM 72.8585 -93.8093 325° Northwest  Level FlightAware Approximate
05:35AM 72.9645 -94.0700 324° Northwest  Level FlightAware Approximate
05:36AM 73.0702 -94.3338 324° Northwest  Level FlightAware Approximate
05:37AM 73.1755 -94.6008 324° Northwest  Level FlightAware Approximate
05:38AM 73.2805 -94.8710 324° Northwest  Level FlightAware Approximate
05:39AM 73.3851 -95.1446 323° Northwest  Level FlightAware Approximate
05:40AM 73.4894 -95.4215 323° Northwest  Level FlightAware Approximate
05:41AM 73.5933 -95.7019 323° Northwest  Level FlightAware Approximate
05:42AM 73.6968 -95.9857 322° Northwest  Level FlightAware Approximate
05:43AM 73.7999 -96.2730 322° Northwest  Level FlightAware Approximate
05:44AM 73.9026 -96.5639 322° Northwest  Level FlightAware Approximate
05:45AM 74.0050 -96.8585 322° Northwest  Level FlightAware Approximate
05:46AM 74.1069 -97.1567 321° Northwest  Level FlightAware Approximate
05:47AM 74.2084 -97.4587 321° Northwest  Level FlightAware Approximate
05:48AM 74.3095 -97.7645 321° Northwest  Level FlightAware Approximate
05:49AM 74.4102 -98.0741 320° Northwest  Level FlightAware Approximate
05:50AM 74.5104 -98.3876 320° Northwest  Level FlightAware Approximate
05:51AM 74.6102 -98.7051 320° Northwest  Level FlightAware Approximate
05:52AM 74.7095 -99.0267 320° Northwest  Level FlightAware Approximate
05:53AM 74.8084 -99.3523 319° Northwest  Level FlightAware Approximate
05:54AM 74.9068 -99.6822 319° Northwest  Level FlightAware Approximate
05:55AM 75.0047 -100.0161 318° Northwest  Level FlightAware Approximate
05:56AM 75.1022 -100.3540 318° Northwest  Level FlightAware Approximate
05:57AM 75.1992 -100.6962 318° Northwest  Level FlightAware Approximate
05:58AM 75.2957 -101.0428 318° Northwest  Level FlightAware Approximate
05:59AM 75.3917 -101.3939 317° Northwest  Level FlightAware Approximate
06:00AM 75.4871 -101.7495 317° Northwest  Level FlightAware Approximate
06:01AM 75.5820 -102.1097 317° Northwest  Level FlightAware Approximate
06:02AM 75.6764 -102.4746 316° Northwest  Level FlightAware Approximate
06:03AM 75.7702 -102.8441 316° Northwest  Level FlightAware Approximate
06:04AM 75.8634 -103.2185 316° Northwest  Level FlightAware Approximate
06:04AM 75.0000 -100.0000 318° Northwest 433 498 34,000  Level ETMS Enhanced Traffic Management System
06:04AM 75.0000 -100.0000 318° Northwest 491 565 34,000  Level Anchorage Center
06:04AM 75.0000 -100.0000 318° Northwest 433 498 34,000  Level ETMS Enhanced Traffic Management System
06:05AM 75.9560 -103.5977 315° West  Level FlightAware Approximate
06:06AM 76.0480 -103.9818 315° West  Level FlightAware Approximate
06:07AM 76.1394 -104.3710 315° West  Level FlightAware Approximate
06:08AM 76.2302 -104.7651 314° West  Level FlightAware Approximate
06:09AM 76.3204 -105.1644 314° West  Level FlightAware Approximate
06:10AM 76.1330 -104.3428 314° West 433 498 34,000  Level FlightAware Transoceanic
06:11AM 76.2168 -104.7054 314° West 433 498 34,000  Level FlightAware Transoceanic
06:12AM 76.2999 -105.0723 313° West 433 498 34,000  Level FlightAware Transoceanic
06:13AM 76.3826 -105.4437 313° West 433 498 34,000  Level FlightAware Transoceanic
06:14AM 76.4646 -105.8194 313° West 433 498 34,000  Level FlightAware Transoceanic
06:15AM 76.5462 -106.1997 312° West 433 498 34,000  Level FlightAware Transoceanic
06:16AM 76.6271 -106.5844 312° West 433 498 34,000  Level FlightAware Transoceanic
06:17AM 76.7074 -106.9738 312° West 433 498 34,000  Level FlightAware Transoceanic
06:18AM 76.7872 -107.3677 311° West 433 498 34,000  Level FlightAware Transoceanic
06:19AM 76.8663 -107.7664 311° West 433 498 34,000  Level FlightAware Transoceanic
06:20AM 76.9448 -108.1698 310° West 433 498 34,000  Level FlightAware Transoceanic
06:21AM 77.0227 -108.5780 310° West 433 498 34,000  Level FlightAware Transoceanic
06:22AM 77.0999 -108.9910 310° West 433 498 34,000  Level FlightAware Transoceanic
06:23AM 77.1765 -109.4088 309° West 433 498 34,000  Level FlightAware Transoceanic
06:24AM 77.2524 -109.8316 309° West 433 498 34,000  Level FlightAware Transoceanic
06:25AM 77.3276 -110.2593 308° West 433 498 34,000  Level FlightAware Transoceanic
06:26AM 77.4022 -110.6920 308° West 433 498 34,000  Level FlightAware Transoceanic
06:27AM 77.4760 -111.1298 308° West 433 498 34,000  Level FlightAware Transoceanic
06:28AM 77.5491 -111.5727 307° West 433 498 34,000  Level FlightAware Transoceanic
06:29AM 77.6215 -112.0207 307° West 433 498 34,000  Level FlightAware Transoceanic
06:30AM 77.6932 -112.4738 306° West 433 498 34,000  Level FlightAware Transoceanic
06:31AM 77.7641 -112.9322 306° West 433 498 34,000  Level FlightAware Transoceanic
06:32AM 77.8342 -113.3957 305° West 433 498 34,000  Level FlightAware Transoceanic
06:33AM 77.9035 -113.8646 305° West 433 498 34,000  Level FlightAware Transoceanic
06:34AM 77.9721 -114.3387 304° West 433 498 34,000  Level FlightAware Transoceanic
06:35AM 78.0398 -114.8182 304° West 433 498 34,000  Level FlightAware Transoceanic
06:36AM 78.1068 -115.3030 304° West 433 498 34,000  Level FlightAware Transoceanic
06:37AM 78.1728 -115.7931 303° West 433 498 34,000  Level FlightAware Transoceanic
06:38AM 78.2381 -116.2887 303° West 433 498 34,000  Level FlightAware Transoceanic
06:39AM 78.3024 -116.7897 302° West 433 498 34,000  Level FlightAware Transoceanic
06:40AM 78.3659 -117.2961 302° West 433 498 34,000  Level FlightAware Transoceanic
06:41AM 78.4285 -117.8080 301° West 433 498 34,000  Level FlightAware Transoceanic
06:42AM 78.4902 -118.3253 301° West 433 498 34,000  Level FlightAware Transoceanic
06:43AM 78.5510 -118.8480 300° West 433 498 34,000  Level FlightAware Transoceanic
06:44AM 78.6108 -119.3763 300° West 433 498 34,000  Level FlightAware Transoceanic
06:45AM 78.6697 -119.9100 299° West 433 498 34,000  Level FlightAware Transoceanic
06:46AM 78.7276 -120.4491 298° West 433 498 34,000  Level FlightAware Transoceanic
06:47AM 78.7845 -120.9937 298° West 433 498 34,000  Level FlightAware Transoceanic
06:48AM 78.8404 -121.5437 297° West 433 498 34,000  Level FlightAware Transoceanic
06:49AM 78.8953 -122.0992 297° West 433 498 34,000  Level FlightAware Transoceanic
06:50AM 78.9492 -122.6600 296° West 433 498 34,000  Level FlightAware Transoceanic
06:51AM 79.0021 -123.2262 296° West 433 498 34,000  Level FlightAware Transoceanic
06:52AM 79.0539 -123.7978 295° West 433 498 34,000  Level FlightAware Transoceanic
06:53AM 79.1046 -124.3747 295° West 433 498 34,000  Level FlightAware Transoceanic
06:54AM 79.1542 -124.9568 294° West 433 498 34,000  Level FlightAware Transoceanic
06:55AM 79.2027 -125.5442 293° West 433 498 34,000  Level FlightAware Transoceanic
06:56AM 79.2501 -126.1368 293° West 433 498 34,000  Level FlightAware Transoceanic
06:57AM 79.2964 -126.7345 292° West 433 498 34,000  Level FlightAware Transoceanic
06:58AM 79.3415 -127.3372 292° West 433 498 34,000  Level FlightAware Transoceanic
06:59AM 79.3855 -127.9450 291° West 433 498 34,000  Level FlightAware Transoceanic
07:00AM 79.4283 -128.5576 290° West 433 498 34,000  Level FlightAware Transoceanic
07:01AM 79.4699 -129.1752 290° West 433 498 34,000  Level FlightAware Transoceanic
07:02AM 79.5102 -129.7975 289° West 433 498 34,000  Level FlightAware Transoceanic
07:03AM 79.5494 -130.4245 289° West 433 498 34,000  Level FlightAware Transoceanic
07:04AM 79.5874 -131.0560 288° West 433 498 34,000  Level FlightAware Transoceanic
07:05AM 79.6240 -131.6921 287° West 433 498 34,000  Level FlightAware Transoceanic
07:06AM 79.6595 -132.3326 287° West 433 498 34,000  Level FlightAware Transoceanic
07:07AM 79.6936 -132.9773 286° West 433 498 34,000  Level FlightAware Transoceanic
07:08AM 79.7265 -133.6262 286° West 433 498 34,000  Level FlightAware Transoceanic
07:09AM 79.7581 -134.2792 285° West 433 498 34,000  Level FlightAware Transoceanic
07:10AM 79.7884 -134.9360 284° West 433 498 34,000  Level FlightAware Transoceanic
07:11AM 79.8173 -135.5966 284° West 433 498 34,000  Level FlightAware Transoceanic
07:12AM 79.8449 -136.2609 283° West 433 498 34,000  Level FlightAware Transoceanic
07:13AM 79.8712 -136.9287 282° West 433 498 34,000  Level FlightAware Transoceanic
07:14AM 79.8961 -137.5998 282° West 433 498 34,000  Level FlightAware Transoceanic
07:15AM 79.9196 -138.2741 281° West 433 498 34,000  Level FlightAware Transoceanic
07:16AM 79.9418 -138.9514 280° West 433 498 34,000  Level FlightAware Transoceanic
07:17AM 79.9626 -139.6317 280° West 433 498 34,000  Level FlightAware Transoceanic
07:18AM 79.9820 -140.3146 279° West 433 498 34,000  Level FlightAware Transoceanic
07:19AM 80.0015 -141.0587 279° West  Level FlightAware Approximate
07:20AM 80.0082 -141.1087 294° West  Level FlightAware Approximate
07:20AM 80.0000 -141.0000 294° West 443 510 34,000  Level ETMS Enhanced Traffic Management System
07:20AM 80.0000 -141.0000 294° West 473 544 34,000  Level Anchorage Center
07:21AM 80.0000 -141.0000 294° West 473 544 34,000  Level Anchorage Center
07:22AM 80.1093 -142.5060 293° West  Level FlightAware Approximate
07:23AM 80.1577 -143.2150 292° West  Level FlightAware Approximate
07:24AM 80.2046 -143.9309 291° West  Level FlightAware Approximate
07:25AM 80.2500 -144.6535 291° West  Level FlightAware Approximate
07:26AM 80.3550 -146.3923 288° West 473 544 34,000  Level FlightAware Transoceanic
07:27AM 80.3933 -147.0927 288° West 473 544 34,000  Level FlightAware Transoceanic
07:28AM 80.4301 -147.7985 287° West 473 544 34,000  Level FlightAware Transoceanic
07:29AM 80.4655 -148.5096 286° West 473 544 34,000  Level FlightAware Transoceanic
07:30AM 80.4994 -149.2259 286° West 473 544 34,000  Level FlightAware Transoceanic
07:31AM 80.5319 -149.9471 285° West 473 544 34,000  Level FlightAware Transoceanic
07:32AM 80.5629 -150.6731 284° West 473 544 34,000  Level FlightAware Transoceanic
07:33AM 80.5924 -151.4038 283° West 473 544 34,000  Level FlightAware Transoceanic
07:34AM 80.6204 -152.1389 283° West 473 544 34,000  Level FlightAware Transoceanic
07:35AM 80.6468 -152.8782 282° West 473 544 34,000  Level FlightAware Transoceanic
07:36AM 80.6717 -153.6216 281° West 473 544 34,000  Level FlightAware Transoceanic
07:37AM 80.6951 -154.3688 281° West 473 544 34,000  Level FlightAware Transoceanic
07:38AM 80.7169 -155.1196 280° West 473 544 34,000  Level FlightAware Transoceanic
07:39AM 80.7371 -155.8738 279° West 473 544 34,000  Level FlightAware Transoceanic
07:40AM 80.7558 -156.6311 278° West 473 544 34,000  Level FlightAware Transoceanic
07:41AM 80.7728 -157.3913 278° West 473 544 34,000  Level FlightAware Transoceanic
07:42AM 80.7883 -158.1542 277° West 473 544 34,000  Level FlightAware Transoceanic
07:43AM 80.8021 -158.9195 276° West 473 544 34,000  Level FlightAware Transoceanic
07:44AM 80.8143 -159.6870 275° West 473 544 34,000  Level FlightAware Transoceanic
07:45AM 80.8249 -160.4563 275° West 473 544 34,000  Level FlightAware Transoceanic
07:46AM 80.8339 -161.2273 274° West 473 544 34,000  Level FlightAware Transoceanic
07:47AM 80.8412 -161.9996 273° West 473 544 34,000  Level FlightAware Transoceanic
07:48AM 80.8469 -162.7730 272° West 473 544 34,000  Level FlightAware Transoceanic
07:49AM 80.8510 -163.5473 272° West 473 544 34,000  Level FlightAware Transoceanic
07:50AM 80.8534 -164.3221 271° West 473 544 34,000  Level FlightAware Transoceanic
07:51AM 80.8542 -165.0971 270° West 473 544 34,000  Level FlightAware Transoceanic
07:52AM 80.8533 -165.8721 269° West 473 544 34,000  Level FlightAware Transoceanic
07:53AM 80.8508 -166.6469 268° West 473 544 34,000  Level FlightAware Transoceanic
07:54AM 80.8466 -167.4211 268° West 473 544 34,000  Level FlightAware Transoceanic
07:55AM 80.8408 -168.1944 267° West 473 544 34,000  Level FlightAware Transoceanic
07:56AM 80.8156 -168.9995 259° West  Level FlightAware Approximate
07:57AM 80.8139 -169.0526 259° West  Level FlightAware Approximate
07:58AM 80.7869 -169.8530 258° West  Level FlightAware Approximate
07:59AM 80.7581 -170.6485 258° West  Level FlightAware Approximate
08:00AM 80.7276 -171.4391 257° West  Level FlightAware Approximate
08:01AM 80.6954 -172.2243 256° West  Level FlightAware Approximate
08:02AM 80.6614 -173.0040 255° West  Level FlightAware Approximate
08:03AM 80.6258 -173.7780 255° West  Level FlightAware Approximate
08:04AM 80.5885 -174.5461 254° West  Level FlightAware Approximate
08:05AM 80.5481 -175.3049 252° West  Level FlightAware Approximate
08:06AM 80.5057 -176.0567 251° West  Level FlightAware Approximate
08:07AM 80.4618 -176.8018 251° West  Level FlightAware Approximate
08:08AM 80.4163 -177.5400 250° West  Level FlightAware Approximate
08:09AM 80.3693 -178.2711 249° West  Level FlightAware Approximate
08:10AM 80.3207 -178.9951 249° West  Level FlightAware Approximate
08:11AM 80.2707 -179.7119 248° West  Level FlightAware Approximate
08:12AM 80.2196 179.5775 247° West  Level FlightAware Approximate
08:13AM 80.1674 178.8735 247° West  Level FlightAware Approximate
08:14AM 80.1138 178.1770 246° West  Level FlightAware Approximate
08:15AM 80.0587 177.4880 245° Southwest  Level FlightAware Approximate
08:16AM 80.0023 176.8066 245° Southwest  Level FlightAware Approximate
08:17AM 79.9445 176.1329 244° Southwest  Level FlightAware Approximate
08:18AM 79.8853 175.4669 243° Southwest  Level FlightAware Approximate
08:19AM 79.8248 174.8086 243° Southwest  Level FlightAware Approximate
08:20AM 79.7630 174.1581 242° Southwest  Level FlightAware Approximate
08:21AM 79.7000 173.5154 241° Southwest  Level FlightAware Approximate
08:22AM 79.6357 172.8806 241° Southwest  Level FlightAware Approximate
08:23AM 79.5701 172.2535 240° Southwest  Level FlightAware Approximate
08:24AM 79.5034 171.6343 240° Southwest  Level FlightAware Approximate
08:25AM 79.4354 171.0229 239° Southwest  Level FlightAware Approximate
08:26AM 79.3663 170.4192 238° Southwest  Level FlightAware Approximate
08:27AM 79.2961 169.8234 238° Southwest  Level FlightAware Approximate
08:28AM 79.2247 169.2352 237° Southwest  Level FlightAware Approximate
08:29AM 79.1523 168.6548 237° Southwest  Level FlightAware Approximate
08:30AM 79.0788 168.0821 236° Southwest  Level FlightAware Approximate
08:31AM 79.0042 167.5169 236° Southwest  Level FlightAware Approximate
08:32AM 78.9286 166.9594 235° Southwest  Level FlightAware Approximate
08:33AM 78.8520 166.4093 234° Southwest  Level FlightAware Approximate
08:34AM 78.7744 165.8667 234° Southwest  Level FlightAware Approximate
08:35AM 78.6958 165.3316 233° Southwest  Level FlightAware Approximate
08:36AM 78.6163 164.8037 233° Southwest  Level FlightAware Approximate
08:37AM 78.5359 164.2831 232° Southwest  Level FlightAware Approximate
08:38AM 78.4545 163.7697 232° Southwest  Level FlightAware Approximate
08:39AM 78.3723 163.2635 231° Southwest  Level FlightAware Approximate
08:40AM 78.2892 162.7643 231° Southwest  Level FlightAware Approximate
08:41AM 78.2052 162.2721 230° Southwest  Level FlightAware Approximate
08:42AM 78.1204 161.7867 230° Southwest  Level FlightAware Approximate
08:43AM 78.0348 161.3082 229° Southwest  Level FlightAware Approximate
08:44AM 77.9484 160.8364 229° Southwest  Level FlightAware Approximate
08:45AM 77.8612 160.3713 228° Southwest  Level FlightAware Approximate
08:46AM 77.7733 159.9127 228° Southwest  Level FlightAware Approximate
08:47AM 77.6845 159.4606 228° Southwest  Level FlightAware Approximate
08:48AM 77.5951 159.0149 227° Southwest  Level FlightAware Approximate
08:49AM 77.5050 158.5755 227° Southwest  Level FlightAware Approximate
08:50AM 77.4141 158.1423 226° Southwest  Level FlightAware Approximate
08:51AM 77.3225 157.7152 226° Southwest  Level FlightAware Approximate
08:52AM 77.2303 157.2942 225° Southwest  Level FlightAware Approximate
08:53AM 77.1375 156.8792 225° Southwest  Level FlightAware Approximate
08:54AM 77.0439 156.4700 225° Southwest  Level FlightAware Approximate
08:55AM 76.9498 156.0666 224° Southwest  Level FlightAware Approximate
08:56AM 76.8550 155.6689 224° Southwest  Level FlightAware Approximate
08:57AM 76.7597 155.2769 223° Southwest  Level FlightAware Approximate
08:58AM 76.6637 154.8903 223° Southwest  Level FlightAware Approximate
08:59AM 76.5672 154.5092 223° Southwest  Level FlightAware Approximate
09:00AM 76.4701 154.1334 222° Southwest  Level FlightAware Approximate
09:01AM 76.3724 153.7629 222° Southwest  Level FlightAware Approximate
09:02AM 76.2747 153.3954 222° Southwest  Level FlightAware Approximate
09:03AM 76.1767 153.0316 222° Southwest  Level FlightAware Approximate
09:04AM 76.0782 152.6727 221° Southwest  Level FlightAware Approximate
09:05AM 75.9792 152.3189 221° Southwest  Level FlightAware Approximate
09:06AM 75.8797 151.9699 221° Southwest  Level FlightAware Approximate
09:07AM 75.7797 151.6257 220° Southwest  Level FlightAware Approximate
09:08AM 75.6792 151.2862 220° Southwest  Level FlightAware Approximate
09:09AM 75.5778 150.9534 219° Southwest  Level FlightAware Approximate
09:10AM 75.4757 150.6268 219° Southwest  Level FlightAware Approximate
09:11AM 75.3730 150.3047 218° Southwest  Level FlightAware Approximate
09:12AM 75.2700 149.9869 218° Southwest  Level FlightAware Approximate
09:13AM 75.1665 149.6735 218° Southwest  Level FlightAware Approximate
09:14AM 75.0626 149.3644 218° Southwest  Level FlightAware Approximate
09:15AM 74.9583 149.0594 217° Southwest  Level FlightAware Approximate
09:16AM 74.8536 148.7586 217° Southwest  Level FlightAware Approximate
09:17AM 74.7485 148.4618 217° Southwest  Level FlightAware Approximate
09:18AM 74.6430 148.1689 216° Southwest  Level FlightAware Approximate
09:19AM 74.5371 147.8800 216° Southwest  Level FlightAware Approximate
09:20AM 74.4309 147.5949 216° Southwest  Level FlightAware Approximate
09:21AM 74.3243 147.3136 216° Southwest  Level FlightAware Approximate
09:22AM 74.2173 147.0360 215° Southwest  Level FlightAware Approximate
09:23AM 74.1100 146.7621 215° Southwest  Level FlightAware Approximate
09:24AM 74.0024 146.4917 215° Southwest  Level FlightAware Approximate
09:25AM 73.8944 146.2249 214° Southwest  Level FlightAware Approximate
09:26AM 73.7861 145.9615 214° Southwest  Level FlightAware Approximate
09:27AM 73.6775 145.7015 214° Southwest  Level FlightAware Approximate
09:28AM 73.5686 145.4449 214° Southwest  Level FlightAware Approximate
09:29AM 73.4593 145.1916 213° Southwest  Level FlightAware Approximate
09:30AM 73.3498 144.9415 213° Southwest  Level FlightAware Approximate
09:31AM 73.2400 144.6946 213° Southwest  Level FlightAware Approximate
09:32AM 73.1298 144.4508 213° Southwest  Level FlightAware Approximate
09:33AM 73.0194 144.2101 213° Southwest  Level FlightAware Approximate
09:34AM 72.9087 143.9724 212° Southwest  Level FlightAware Approximate
09:35AM 72.7978 143.7377 212° Southwest  Level FlightAware Approximate
09:36AM 72.6865 143.5059 212° Southwest  Level FlightAware Approximate
09:37AM 72.5750 143.2770 212° Southwest  Level FlightAware Approximate
09:38AM 72.4633 143.0509 211° Southwest  Level FlightAware Approximate
09:39AM 72.3513 142.8276 211° Southwest  Level FlightAware Approximate
09:40AM 72.2390 142.6070 211° Southwest  Level FlightAware Approximate
09:41AM 72.1265 142.3891 211° Southwest  Level FlightAware Approximate
09:42AM 72.0138 142.1738 211° Southwest  Level FlightAware Approximate
09:43AM 71.9008 141.9612 210° Southwest  Level FlightAware Approximate
09:44AM 71.7876 141.7511 210° Southwest  Level FlightAware Approximate
09:45AM 71.6741 141.5435 210° Southwest  Level FlightAware Approximate
09:46AM 71.5605 141.3383 210° Southwest  Level FlightAware Approximate
09:47AM 71.4466 141.1356 210° Southwest  Level FlightAware Approximate
09:48AM 71.3325 140.9353 209° Southwest  Level FlightAware Approximate
09:49AM 71.2182 140.7374 209° Southwest  Level FlightAware Approximate
09:50AM 71.1037 140.5417 209° Southwest  Level FlightAware Approximate
09:51AM 70.9890 140.3483 209° Southwest  Level FlightAware Approximate
09:52AM 70.8741 140.1572 209° Southwest  Level FlightAware Approximate
09:53AM 70.7590 139.9682 208° Southwest  Level FlightAware Approximate
09:54AM 70.6438 139.7815 208° Southwest  Level FlightAware Approximate
09:55AM 70.5283 139.5968 208° Southwest  Level FlightAware Approximate
09:56AM 70.4126 139.4142 208° Southwest  Level FlightAware Approximate
09:57AM 70.2968 139.2338 208° Southwest  Level FlightAware Approximate
09:58AM 70.1807 139.0553 208° Southwest  Level FlightAware Approximate
09:59AM 70.0646 138.8788 207° Southwest  Level FlightAware Approximate
10:00AM 69.9482 138.7043 207° Southwest  Level FlightAware Approximate
10:01AM 69.8316 138.5318 207° Southwest  Level FlightAware Approximate
10:02AM 69.7149 138.3611 207° Southwest  Level FlightAware Approximate
10:03AM 69.5981 138.1923 207° Southwest  Level FlightAware Approximate
10:04AM 69.4810 138.0253 207° Southwest  Level FlightAware Approximate
10:05AM 69.3639 137.8602 206° Southwest  Level FlightAware Approximate
10:06AM 69.2465 137.6968 206° Southwest  Level FlightAware Approximate
10:07AM 69.1290 137.5352 206° Southwest  Level FlightAware Approximate
10:08AM 69.0114 137.3754 206° Southwest  Level FlightAware Approximate
10:09AM 68.8936 137.2172 206° Southwest  Level FlightAware Approximate
10:10AM 68.7756 137.0607 206° Southwest  Level FlightAware Approximate
10:11AM 68.6576 136.9059 206° Southwest  Level FlightAware Approximate
10:12AM 68.5393 136.7527 205° Southwest  Level FlightAware Approximate
10:13AM 68.4210 136.6010 205° Southwest  Level FlightAware Approximate
10:14AM 68.3025 136.4510 205° Southwest  Level FlightAware Approximate
10:15AM 68.1839 136.3025 205° Southwest  Level FlightAware Approximate
10:16AM 68.0651 136.1556 205° Southwest  Level FlightAware Approximate
10:17AM 67.9462 136.0101 205° Southwest  Level FlightAware Approximate
10:18AM 67.8272 135.8661 205° Southwest  Level FlightAware Approximate
10:19AM 67.7081 135.7236 204° Southwest  Level FlightAware Approximate
10:20AM 67.5888 135.5826 204° Southwest  Level FlightAware Approximate
10:21AM 67.4694 135.4429 204° Southwest  Level FlightAware Approximate
10:22AM 67.3499 135.3047 204° Southwest  Level FlightAware Approximate
10:23AM 67.2303 135.1678 204° Southwest  Level FlightAware Approximate
10:24AM 67.1105 135.0323 204° Southwest  Level FlightAware Approximate
10:25AM 66.9907 134.8981 204° Southwest  Level FlightAware Approximate
10:26AM 66.8707 134.7652 204° Southwest  Level FlightAware Approximate
10:27AM 66.7506 134.6337 203° Southwest  Level FlightAware Approximate
10:28AM 66.6305 134.5034 203° Southwest  Level FlightAware Approximate
10:29AM 66.5102 134.3743 203° Southwest  Level FlightAware Approximate
10:30AM 66.3898 134.2466 203° Southwest  Level FlightAware Approximate
10:31AM 66.2693 134.1200 203° Southwest  Level FlightAware Approximate
10:32AM 66.1487 133.9946 203° Southwest  Level FlightAware Approximate
10:33AM 66.0280 133.8705 203° Southwest  Level FlightAware Approximate
10:34AM 65.9072 133.7474 203° Southwest  Level FlightAware Approximate
10:35AM 65.7863 133.6256 202° Southwest  Level FlightAware Approximate
10:36AM 65.6653 133.5049 202° Southwest  Level FlightAware Approximate
10:37AM 65.5442 133.3853 202° Southwest  Level FlightAware Approximate
10:38AM 65.4230 133.2668 202° Southwest  Level FlightAware Approximate
10:39AM 65.3018 133.1494 202° Southwest  Level FlightAware Approximate
10:40AM 65.1804 133.0331 202° Southwest  Level FlightAware Approximate
10:41AM 65.0589 132.9179 202° Southwest  Level FlightAware Approximate
10:42AM 64.9374 132.8037 202° Southwest  Level FlightAware Approximate
10:43AM 64.8158 132.6905 202° Southwest  Level FlightAware Approximate
10:44AM 64.6941 132.5783 202° Southwest  Level FlightAware Approximate
10:45AM 64.5723 132.4672 201° Southwest  Level FlightAware Approximate
10:46AM 64.4504 132.3570 201° Southwest  Level FlightAware Approximate
10:47AM 64.3284 132.2478 201° Southwest  Level FlightAware Approximate
10:48AM 64.2064 132.1396 201° Southwest  Level FlightAware Approximate
10:49AM 64.0843 132.0323 201° Southwest  Level FlightAware Approximate
10:50AM 63.9621 131.9260 201° Southwest  Level FlightAware Approximate
10:51AM 63.8398 131.8206 201° Southwest  Level FlightAware Approximate
10:52AM 63.7174 131.7161 201° Southwest  Level FlightAware Approximate
10:53AM 63.5950 131.6125 201° Southwest  Level FlightAware Approximate
10:54AM 63.4725 131.5098 201° Southwest  Level FlightAware Approximate
10:55AM 63.3499 131.4079 200° South  Level FlightAware Approximate
10:56AM 63.2273 131.3070 200° South  Level FlightAware Approximate
10:57AM 63.1046 131.2068 200° South  Level FlightAware Approximate
10:58AM 62.9818 131.1076 200° South  Level FlightAware Approximate
10:59AM 62.8589 131.0091 200° South  Level FlightAware Approximate
11:00AM 62.7360 130.9115 200° South  Level FlightAware Approximate
11:01AM 62.6130 130.8147 200° South  Level FlightAware Approximate
11:02AM 62.4900 130.7187 200° South  Level FlightAware Approximate
11:03AM 62.3668 130.6235 200° South  Level FlightAware Approximate
11:04AM 62.2436 130.5290 200° South  Level FlightAware Approximate
11:05AM 62.1204 130.4353 200° South  Level FlightAware Approximate
11:06AM 61.9971 130.3424 199° South  Level FlightAware Approximate
11:07AM 61.8737 130.2502 199° South  Level FlightAware Approximate
11:08AM 61.7503 130.1588 199° South  Level FlightAware Approximate
11:09AM 61.6268 130.0681 199° South  Level FlightAware Approximate
11:10AM 61.5032 129.9782 199° South  Level FlightAware Approximate
11:11AM 61.3796 129.8891 199° South  Level FlightAware Approximate
11:12AM 61.2559 129.8006 199° South  Level FlightAware Approximate
11:13AM 61.1321 129.7129 199° South  Level FlightAware Approximate
11:14AM 61.0083 129.6259 199° South  Level FlightAware Approximate
11:15AM 60.8844 129.5395 199° South  Level FlightAware Approximate
11:16AM 60.7605 129.4538 199° South  Level FlightAware Approximate
11:17AM 60.6365 129.3688 199° South  Level FlightAware Approximate
11:18AM 60.5125 129.2844 199° South  Level FlightAware Approximate
11:19AM 60.3884 129.2007 198° South  Level FlightAware Approximate
11:20AM 60.2643 129.1176 198° South  Level FlightAware Approximate
11:21AM 60.1401 129.0351 198° South  Level FlightAware Approximate
11:22AM 60.0159 128.9533 198° South  Level FlightAware Approximate
11:23AM 59.8916 128.8720 198° South  Level FlightAware Approximate
11:24AM 59.7673 128.7914 198° South  Level FlightAware Approximate
11:25AM 59.6429 128.7113 198° South  Level FlightAware Approximate
11:26AM 59.5184 128.6319 198° South  Level FlightAware Approximate
11:27AM 59.3940 128.5531 198° South  Level FlightAware Approximate
11:28AM 59.2694 128.4748 198° South  Level FlightAware Approximate
11:29AM 59.1448 128.3970 198° South  Level FlightAware Approximate
11:30AM 59.0202 128.3199 198° South  Level FlightAware Approximate
11:31AM 58.8955 128.2433 198° South  Level FlightAware Approximate
11:32AM 58.7708 128.1673 198° South  Level FlightAware Approximate
11:33AM 58.6461 128.0918 197° South  Level FlightAware Approximate
11:34AM 58.5213 128.0168 197° South  Level FlightAware Approximate
11:35AM 58.3964 127.9424 197° South  Level FlightAware Approximate
11:36AM 58.2715 127.8685 197° South  Level FlightAware Approximate
11:37AM 58.1466 127.7951 197° South  Level FlightAware Approximate
11:38AM 58.0216 127.7222 197° South  Level FlightAware Approximate
11:39AM 57.8929 127.6867 184° South  Level FlightAware Approximate
11:40AM 57.7626 127.6676 184° South  Level FlightAware Approximate
11:41AM 57.6322 127.6487 184° South  Level FlightAware Approximate
11:42AM 57.5018 127.6298 184° South  Level FlightAware Approximate
11:43AM 57.3714 127.6112 184° South  Level FlightAware Approximate
11:44AM 57.2410 127.5926 184° South  Level FlightAware Approximate
11:45AM 57.1106 127.5742 184° South  Level FlightAware Approximate
11:46AM 56.9802 127.5559 184° South  Level FlightAware Approximate
11:47AM 56.8498 127.5378 184° South  Level FlightAware Approximate
11:48AM 56.7194 127.5197 184° South  Level FlightAware Approximate
11:49AM 56.5890 127.5018 184° South  Level FlightAware Approximate
11:50AM 56.4586 127.4840 184° South  Level FlightAware Approximate
11:51AM 56.3282 127.4664 184° South  Level FlightAware Approximate
11:52AM 56.1978 127.4488 184° South  Level FlightAware Approximate
11:53AM 56.0674 127.4314 184° South  Level FlightAware Approximate
11:54AM 55.9370 127.4141 184° South  Level FlightAware Approximate
11:55AM 55.8065 127.3969 184° South  Level FlightAware Approximate
11:56AM 55.6761 127.3798 184° South  Level FlightAware Approximate
11:57AM 55.5457 127.3628 184° South  Level FlightAware Approximate
11:58AM 55.4153 127.3460 184° South  Level FlightAware Approximate
11:59AM 55.2848 127.3313 182° South  Level FlightAware Approximate
12:00PM 55.1541 127.3227 182° South  Level FlightAware Approximate
12:01PM 55.0234 127.3143 182° South  Level FlightAware Approximate
12:02PM 54.8927 127.3059 182° South  Level FlightAware Approximate
12:03PM 54.7621 127.2970 183° South  Level FlightAware Approximate
12:04PM 54.6314 127.2867 183° South  Level FlightAware Approximate
12:05PM 54.5008 127.2765 183° South  Level FlightAware Approximate
12:06PM 54.3701 127.2664 183° South  Level FlightAware Approximate
12:07PM 54.2395 127.2563 183° South  Level FlightAware Approximate
12:08PM 54.1089 127.2463 183° South  Level FlightAware Approximate
12:09PM 53.9782 127.2364 183° South  Level FlightAware Approximate
12:10PM 53.8476 127.2265 183° South  Level FlightAware Approximate
12:11PM 53.7169 127.2167 183° South  Level FlightAware Approximate
12:12PM 53.5878 127.2512 171° South  Level FlightAware Approximate
12:13PM 53.4586 127.2855 171° South  Level FlightAware Approximate
12:14PM 53.3294 127.3196 171° South  Level FlightAware Approximate
12:15PM 53.2002 127.3536 171° South  Level FlightAware Approximate
12:16PM 53.0710 127.3873 171° South  Level FlightAware Approximate
12:17PM 52.9418 127.4208 171° South  Level FlightAware Approximate
12:18PM 52.8126 127.4541 171° South  Level FlightAware Approximate
12:19PM 52.6834 127.4872 171° South  Level FlightAware Approximate
12:20PM 52.5542 127.5211 171° South  Level FlightAware Approximate
12:21PM 52.4251 127.5553 171° South  Level FlightAware Approximate
12:22PM 52.2960 127.5894 171° South  Level FlightAware Approximate
12:23PM 52.1669 127.6232 171° South  Level FlightAware Approximate
12:24PM 52.0378 127.6569 171° South  Level FlightAware Approximate
12:25PM 51.9075 127.6667 180° South  Level FlightAware Approximate
12:26PM 51.7767 127.6667 180° South  Level FlightAware Approximate
12:27PM 51.6459 127.6667 180° South  Level FlightAware Approximate
12:28PM 51.5151 127.6667 180° South  Level FlightAware Approximate
12:29PM 51.3844 127.6667 180° South  Level FlightAware Approximate
12:30PM 51.2545 127.6497 190° South  Level FlightAware Approximate
12:31PM 51.1256 127.6146 190° South  Level FlightAware Approximate
12:32PM 50.9967 127.5798 190° South  Level FlightAware Approximate
12:33PM 50.8677 127.5451 190° South  Level FlightAware Approximate
12:34PM 50.7388 127.5107 190° South  Level FlightAware Approximate
12:35PM 50.6098 127.4764 190° South  Level FlightAware Approximate
12:36PM 50.4808 127.4423 190° South  Level FlightAware Approximate
12:37PM 50.3512 127.4006 198° South  Level FlightAware Approximate
12:38PM 50.2251 127.3368 198° South  Level FlightAware Approximate
12:39PM 50.0990 127.2724 198° South  Level FlightAware Approximate
12:40PM 49.9730 127.2084 198° South  Level FlightAware Approximate
12:41PM 49.8469 127.1447 198° South  Level FlightAware Approximate
12:42PM 49.7208 127.0813 198° South  Level FlightAware Approximate
12:43PM 49.5946 127.0183 198° South  Level FlightAware Approximate
12:44PM 49.4684 126.9556 198° South  Level FlightAware Approximate
12:45PM 49.3422 126.8932 198° South  Level FlightAware Approximate
12:46PM 49.2160 126.8311 198° South  Level FlightAware Approximate
12:47PM 49.0897 126.7693 198° South  Level FlightAware Approximate
12:48PM 48.9634 126.7079 198° South  Level FlightAware Approximate
12:49PM 48.8370 126.6468 198° South  Level FlightAware Approximate
12:50PM 48.7107 126.5859 198° South  Level FlightAware Approximate
12:51PM 48.5842 126.5254 198° South  Level FlightAware Approximate
12:52PM 48.4578 126.4652 198° South  Level FlightAware Approximate
12:53PM 48.3313 126.4053 197° South  Level FlightAware Approximate
12:54PM 48.2048 126.3457 197° South  Level FlightAware Approximate
12:55PM 48.0783 126.2863 197° South  Level FlightAware Approximate
12:56PM 47.9517 126.2273 197° South  Level FlightAware Approximate
12:57PM 47.8251 126.1686 197° South  Level FlightAware Approximate
12:58PM 47.6985 126.1101 197° South  Level FlightAware Approximate
12:59PM 47.5718 126.0519 197° South  Level FlightAware Approximate
01:00PM 47.4451 125.9940 197° South  Level FlightAware Approximate
01:01PM 47.3184 125.9364 197° South  Level FlightAware Approximate
01:02PM 47.1917 125.8791 197° South  Level FlightAware Approximate
01:03PM 47.0649 125.8220 197° South  Level FlightAware Approximate
01:04PM 46.9381 125.7652 197° South  Level FlightAware Approximate
01:05PM 46.8112 125.7088 197° South  Level FlightAware Approximate
01:06PM 46.6843 125.6528 197° South  Level FlightAware Approximate
01:07PM 46.5574 125.5971 197° South  Level FlightAware Approximate
01:08PM 46.4304 125.5417 197° South  Level FlightAware Approximate
01:09PM 46.3034 125.4865 197° South  Level FlightAware Approximate
01:10PM 46.1763 125.4316 197° South  Level FlightAware Approximate
01:11PM 46.0493 125.3769 197° South  Level FlightAware Approximate
01:12PM 45.9222 125.3225 197° South  Level FlightAware Approximate
01:13PM 45.7951 125.2683 197° South  Level FlightAware Approximate
01:14PM 45.6680 125.2144 197° South  Level FlightAware Approximate
01:15PM 45.5408 125.1607 196° South  Level FlightAware Approximate
01:16PM 45.4136 125.1073 196° South  Level FlightAware Approximate
01:17PM 45.2864 125.0541 196° South  Level FlightAware Approximate
01:18PM 45.1592 125.0011 196° South  Level FlightAware Approximate
01:19PM 45.0319 124.9484 196° South  Level FlightAware Approximate
01:20PM 44.9047 124.8959 196° South  Level FlightAware Approximate
01:21PM 44.7774 124.8437 196° South  Level FlightAware Approximate
01:22PM 44.6500 124.7916 196° South  Level FlightAware Approximate
01:23PM 44.5227 124.7398 196° South  Level FlightAware Approximate
01:24PM 44.3953 124.6883 196° South  Level FlightAware Approximate
01:25PM 44.2679 124.6369 196° South  Level FlightAware Approximate
01:26PM 44.1405 124.5858 196° South  Level FlightAware Approximate
01:27PM 44.0130 124.5349 196° South  Level FlightAware Approximate
01:28PM 43.8856 124.4842 196° South  Level FlightAware Approximate
01:29PM 43.7581 124.4337 196° South  Level FlightAware Approximate
01:30PM 43.6306 124.3835 196° South  Level FlightAware Approximate
01:31PM 43.5030 124.3334 196° South  Level FlightAware Approximate
01:32PM 43.3755 124.2836 196° South  Level FlightAware Approximate
01:33PM 43.2479 124.2340 196° South  Level FlightAware Approximate
01:34PM 43.1203 124.1845 196° South  Level FlightAware Approximate
01:35PM 42.9927 124.1353 196° South  Level FlightAware Approximate
01:36PM 42.8651 124.0863 196° South  Level FlightAware Approximate
01:37PM 42.7374 124.0375 196° South  Level FlightAware Approximate
01:38PM 42.6097 123.9889 196° South  Level FlightAware Approximate
01:39PM 42.4820 123.9405 196° South  Level FlightAware Approximate
01:40PM 42.3543 123.8923 196° South  Level FlightAware Approximate
01:41PM 42.2266 123.8443 196° South  Level FlightAware Approximate
01:42PM 42.0988 123.7965 196° South  Level FlightAware Approximate
01:43PM 41.9710 123.7488 195° South  Level FlightAware Approximate
01:44PM 41.8432 123.7014 195° South  Level FlightAware Approximate
01:45PM 41.7154 123.6542 195° South  Level FlightAware Approximate
01:46PM 41.5876 123.6071 195° South  Level FlightAware Approximate
01:47PM 41.4597 123.5602 195° South  Level FlightAware Approximate
01:48PM 41.3318 123.5135 195° South  Level FlightAware Approximate
01:49PM 41.2039 123.4670 195° South  Level FlightAware Approximate
01:50PM 41.0760 123.4207 195° South  Level FlightAware Approximate
01:51PM 40.9481 123.3746 195° South  Level FlightAware Approximate
01:52PM 40.8201 123.3286 195° South  Level FlightAware Approximate
01:53PM 40.6921 123.2832 195° South  Level FlightAware Approximate
01:54PM 40.5640 123.2380 195° South  Level FlightAware Approximate
01:55PM 40.4359 123.1929 195° South  Level FlightAware Approximate
01:56PM 40.3078 123.1480 195° South  Level FlightAware Approximate
01:57PM 40.1797 123.1033 195° South  Level FlightAware Approximate
01:58PM 40.0516 123.0588 195° South  Level FlightAware Approximate
01:59PM 39.9234 123.0144 195° South  Level FlightAware Approximate
02:00PM 39.7952 122.9702 195° South  Level FlightAware Approximate
02:01PM 39.6671 122.9261 195° South  Level FlightAware Approximate
02:02PM 39.5389 122.8822 195° South  Level FlightAware Approximate
02:03PM 39.4106 122.8385 195° South  Level FlightAware Approximate
02:04PM 39.2824 122.7949 195° South  Level FlightAware Approximate
02:05PM 39.1542 122.7515 195° South  Level FlightAware Approximate
02:06PM 39.0259 122.7082 195° South  Level FlightAware Approximate
02:07PM 38.8976 122.6651 195° South  Level FlightAware Approximate
02:08PM 38.7693 122.6222 195° South  Level FlightAware Approximate
02:09PM 38.6410 122.5794 195° South  Level FlightAware Approximate
02:10PM 38.5127 122.5368 195° South  Level FlightAware Approximate
02:11PM 38.3843 122.4943 195° South  Level FlightAware Approximate
02:12PM 38.2560 122.4520 195° South  Level FlightAware Approximate
02:13PM 38.1610 122.5643 135° Southeast  Level FlightAware Approximate
02:14PM 38.0675 122.6838 135° Southeast  Level FlightAware Approximate
02:15PM 37.9739 122.8030 135° Southeast  Level FlightAware Approximate
02:16PM 37.8802 122.9220 135° Southeast  Level FlightAware Approximate
02:17PM 37.7864 123.0406 135° Southeast  Level FlightAware Approximate
02:18PM 37.6925 123.1589 135° Southeast  Level FlightAware Approximate
02:19PM 37.5984 123.2769 135° Southeast  Level FlightAware Approximate
02:20PM 37.5136 123.4050 127° Southeast  Level FlightAware Approximate
02:21PM 37.4335 123.5381 127° Southeast  Level FlightAware Approximate
02:22PM 37.3532 123.6709 127° Southeast  Level FlightAware Approximate
02:23PM 37.2727 123.8034 127° Southeast  Level FlightAware Approximate
02:24PM 37.1921 123.9356 127° Southeast  Level FlightAware Approximate
02:25PM 37.1807 124.0895 73° East  Level FlightAware Approximate
02:26PM 37.2038 124.2533 80° East  Level FlightAware Approximate
02:27PM 37.2256 124.4175 81° East  Level FlightAware Approximate
02:28PM 37.2471 124.5819 81° East  Level FlightAware Approximate
02:29PM 37.2687 124.7462 79° East  Level FlightAware Approximate